Fitchburg, Massachusetts
Current Conditions -  °F | °C
As of 8:52 AM on Sunday 23 Nov 2014 (Local Time) from KFIT Reporting Station
Clear Clear  
Wind Chill: 41°   Ceiling: Unl
Heat Index: 45°   Visibility: 10mi
Dew Point: 27°   Wind: 8mph
Humidity: 49%   Direction: 140°SE
Pressure: 30.12"   Gusts: NA
Location:  42.58°N, 71.79°W
Report Text: KFIT 231352Z AUTO 14007KT 10SM CLR 07/M03 A3012 RMK AO2 SLP202 T00721028
Loading
Personal Weather Stations






























Interactive Weather Map New forecast layout! Learn more

10-Day Weather Forecast

Advertisements
Track Severe Weather on mobile